sensor_id;sensor_type;location;lat;lon;timestamp;temperature;humidity
44723;DHT22;30451;48.638;10.624;2023-08-06T00:00:16;25.70;49.10
44723;DHT22;30451;48.638;10.624;2023-08-06T00:02:42;25.70;49.20
44723;DHT22;30451;48.638;10.624;2023-08-06T00:05:08;25.70;49.20
44723;DHT22;30451;48.638;10.624;2023-08-06T00:07:33;25.60;49.20
44723;DHT22;30451;48.638;10.624;2023-08-06T00:09:59;25.60;49.20
44723;DHT22;30451;48.638;10.624;2023-08-06T00:12:24;25.60;49.20
44723;DHT22;30451;48.638;10.624;2023-08-06T00:14:51;25.60;49.20
44723;DHT22;30451;48.638;10.624;2023-08-06T00:17:17;25.60;49.30
44723;DHT22;30451;48.638;10.624;2023-08-06T00:19:42;25.60;49.30
44723;DHT22;30451;48.638;10.624;2023-08-06T00:22:08;25.60;49.30
44723;DHT22;30451;48.638;10.624;2023-08-06T00:24:34;25.60;49.30
44723;DHT22;30451;48.638;10.624;2023-08-06T00:27:00;25.60;49.30
44723;DHT22;30451;48.638;10.624;2023-08-06T00:29:26;25.60;49.30
44723;DHT22;30451;48.638;10.624;2023-08-06T00:31:51;25.50;49.80
44723;DHT22;30451;48.638;10.624;2023-08-06T00:34:17;25.50;49.30
44723;DHT22;30451;48.638;10.624;2023-08-06T00:36:43;25.50;49.30
44723;DHT22;30451;48.638;10.624;2023-08-06T00:39:08;25.50;49.30
44723;DHT22;30451;48.638;10.624;2023-08-06T00:41:34;25.50;49.40
44723;DHT22;30451;48.638;10.624;2023-08-06T00:44:00;25.50;49.40
44723;DHT22;30451;48.638;10.624;2023-08-06T00:46:26;25.50;49.30
44723;DHT22;30451;48.638;10.624;2023-08-06T00:48:52;25.50;49.40
44723;DHT22;30451;48.638;10.624;2023-08-06T00:51:18;25.50;49.40
44723;DHT22;30451;48.638;10.624;2023-08-06T00:53:44;25.40;49.40
44723;DHT22;30451;48.638;10.624;2023-08-06T00:56:10;25.50;49.50
44723;DHT22;30451;48.638;10.624;2023-08-06T00:58:37;25.50;49.50
44723;DHT22;30451;48.638;10.624;2023-08-06T01:01:03;25.40;49.40
44723;DHT22;30451;48.638;10.624;2023-08-06T01:03:29;25.40;49.40
44723;DHT22;30451;48.638;10.624;2023-08-06T01:05:55;25.40;49.50
44723;DHT22;30451;48.638;10.624;2023-08-06T01:11:21;25.40;49.50
44723;DHT22;30451;48.638;10.624;2023-08-06T01:13:50;25.40;49.50
44723;DHT22;30451;48.638;10.624;2023-08-06T01:16:17;25.40;49.50
44723;DHT22;30451;48.638;10.624;2023-08-06T01:18:43;25.40;49.50
44723;DHT22;30451;48.638;10.624;2023-08-06T01:21:12;25.40;49.50
44723;DHT22;30451;48.638;10.624;2023-08-06T01:23:38;25.40;49.50
44723;DHT22;30451;48.638;10.624;2023-08-06T01:29:08;25.30;49.50
44723;DHT22;30451;48.638;10.624;2023-08-06T01:31:37;25.30;49.50
44723;DHT22;30451;48.638;10.624;2023-08-06T01:34:06;25.30;49.60
44723;DHT22;30451;48.638;10.624;2023-08-06T01:36:32;25.30;49.60
44723;DHT22;30451;48.638;10.624;2023-08-06T01:38:59;25.30;49.60
44723;DHT22;30451;48.638;10.624;2023-08-06T01:41:25;25.30;49.60
44723;DHT22;30451;48.638;10.624;2023-08-06T01:43:50;25.30;49.60
44723;DHT22;30451;48.638;10.624;2023-08-06T01:46:16;25.30;49.60
44723;DHT22;30451;48.638;10.624;2023-08-06T01:48:43;25.30;49.70
44723;DHT22;30451;48.638;10.624;2023-08-06T01:51:08;25.30;49.70
44723;DHT22;30451;48.638;10.624;2023-08-06T01:53:34;25.30;49.70
44723;DHT22;30451;48.638;10.624;2023-08-06T01:56:00;25.30;49.70
44723;DHT22;30451;48.638;10.624;2023-08-06T01:58:25;25.20;50.20
44723;DHT22;30451;48.638;10.624;2023-08-06T02:00:52;25.20;49.70
44723;DHT22;30451;48.638;10.624;2023-08-06T02:03:17;25.20;49.70
44723;DHT22;30451;48.638;10.624;2023-08-06T02:05:43;25.20;49.70
44723;DHT22;30451;48.638;10.624;2023-08-06T02:08:09;25.20;49.70
44723;DHT22;30451;48.638;10.624;2023-08-06T02:10:34;25.20;49.70
44723;DHT22;30451;48.638;10.624;2023-08-06T02:13:00;25.20;49.70
44723;DHT22;30451;48.638;10.624;2023-08-06T02:15:26;25.20;49.70
44723;DHT22;30451;48.638;10.624;2023-08-06T02:17:51;25.20;49.70
44723;DHT22;30451;48.638;10.624;2023-08-06T02:20:17;25.20;49.70
44723;DHT22;30451;48.638;10.624;2023-08-06T02:22:42;25.20;49.70
44723;DHT22;30451;48.638;10.624;2023-08-06T02:25:08;25.20;49.70
44723;DHT22;30451;48.638;10.624;2023-08-06T02:27:34;25.20;49.80
44723;DHT22;30451;48.638;10.624;2023-08-06T02:29:59;25.20;49.80
44723;DHT22;30451;48.638;10.624;2023-08-06T02:32:25;25.20;49.80
44723;DHT22;30451;48.638;10.624;2023-08-06T02:34:51;25.10;49.70
44723;DHT22;30451;48.638;10.624;2023-08-06T02:37:17;25.20;49.80
44723;DHT22;30451;48.638;10.624;2023-08-06T02:39:42;25.10;49.70
44723;DHT22;30451;48.638;10.624;2023-08-06T02:42:09;25.10;49.70
44723;DHT22;30451;48.638;10.624;2023-08-06T02:44:35;25.10;49.70
44723;DHT22;30451;48.638;10.624;2023-08-06T02:47:01;25.10;49.70
44723;DHT22;30451;48.638;10.624;2023-08-06T02:49:26;25.10;49.80
44723;DHT22;30451;48.638;10.624;2023-08-06T02:51:52;25.10;49.80
44723;DHT22;30451;48.638;10.624;2023-08-06T02:54:18;25.10;49.80
44723;DHT22;30451;48.638;10.624;2023-08-06T02:56:45;25.10;49.80
44723;DHT22;30451;48.638;10.624;2023-08-06T02:59:12;25.10;49.90
44723;DHT22;30451;48.638;10.624;2023-08-06T03:01:38;25.10;49.80
44723;DHT22;30451;48.638;10.624;2023-08-06T03:04:04;25.10;49.80
44723;DHT22;30451;48.638;10.624;2023-08-06T03:06:29;25.10;49.80
44723;DHT22;30451;48.638;10.624;2023-08-06T03:08:55;25.10;49.80
44723;DHT22;30451;48.638;10.624;2023-08-06T03:11:21;25.10;49.80
44723;DHT22;30451;48.638;10.624;2023-08-06T03:13:47;25.10;49.90
44723;DHT22;30451;48.638;10.624;2023-08-06T03:16:13;25.10;49.80
44723;DHT22;30451;48.638;10.624;2023-08-06T03:18:39;25.10;49.90
44723;DHT22;30451;48.638;10.624;2023-08-06T03:21:05;25.10;49.90
44723;DHT22;30451;48.638;10.624;2023-08-06T03:23:30;25.10;49.90
44723;DHT22;30451;48.638;10.624;2023-08-06T03:25:56;25.00;49.80
44723;DHT22;30451;48.638;10.624;2023-08-06T03:28:22;25.00;49.80
44723;DHT22;30451;48.638;10.624;2023-08-06T03:30:47;25.00;49.90
44723;DHT22;30451;48.638;10.624;2023-08-06T03:33:13;25.00;49.90
44723;DHT22;30451;48.638;10.624;2023-08-06T03:35:39;25.10;50.00
44723;DHT22;30451;48.638;10.624;2023-08-06T03:38:05;25.00;49.90
44723;DHT22;30451;48.638;10.624;2023-08-06T03:40:31;25.00;49.90
44723;DHT22;30451;48.638;10.624;2023-08-06T03:42:56;25.00;49.90
44723;DHT22;30451;48.638;10.624;2023-08-06T03:45:22;25.00;49.90
44723;DHT22;30451;48.638;10.624;2023-08-06T03:47:48;25.00;49.90
44723;DHT22;30451;48.638;10.624;2023-08-06T03:50:13;25.00;49.90
44723;DHT22;30451;48.638;10.624;2023-08-06T03:52:39;24.90;49.90
44723;DHT22;30451;48.638;10.624;2023-08-06T03:55:05;25.00;49.90
44723;DHT22;30451;48.638;10.624;2023-08-06T03:57:30;24.90;49.90
44723;DHT22;30451;48.638;10.624;2023-08-06T03:59:56;25.00;49.90
44723;DHT22;30451;48.638;10.624;2023-08-06T04:02:22;25.00;49.90
44723;DHT22;30451;48.638;10.624;2023-08-06T04:04:48;25.00;49.90
44723;DHT22;30451;48.638;10.624;2023-08-06T04:07:14;25.00;49.90
44723;DHT22;30451;48.638;10.624;2023-08-06T04:12:19;24.90;49.90
44723;DHT22;30451;48.638;10.624;2023-08-06T04:14:44;24.90;49.90
44723;DHT22;30451;48.638;10.624;2023-08-06T04:17:10;24.90;49.90
44723;DHT22;30451;48.638;10.624;2023-08-06T04:19:35;25.00;50.00
44723;DHT22;30451;48.638;10.624;2023-08-06T04:22:01;24.90;49.90
44723;DHT22;30451;48.638;10.624;2023-08-06T04:24:27;24.90;49.90
44723;DHT22;30451;48.638;10.624;2023-08-06T04:26:52;24.90;49.90
44723;DHT22;30451;48.638;10.624;2023-08-06T04:29:18;24.90;49.90
44723;DHT22;30451;48.638;10.624;2023-08-06T04:31:43;24.90;49.90
44723;DHT22;30451;48.638;10.624;2023-08-06T04:34:09;24.90;50.00
44723;DHT22;30451;48.638;10.624;2023-08-06T04:36:35;24.90;50.00
44723;DHT22;30451;48.638;10.624;2023-08-06T04:39:00;24.90;50.00
44723;DHT22;30451;48.638;10.624;2023-08-06T04:41:26;24.90;50.00
44723;DHT22;30451;48.638;10.624;2023-08-06T04:43:51;24.90;50.00
44723;DHT22;30451;48.638;10.624;2023-08-06T04:46:17;24.90;50.00
44723;DHT22;30451;48.638;10.624;2023-08-06T04:48:42;24.90;50.00
44723;DHT22;30451;48.638;10.624;2023-08-06T04:51:08;24.90;50.00
44723;DHT22;30451;48.638;10.624;2023-08-06T04:53:34;24.90;50.00
44723;DHT22;30451;48.638;10.624;2023-08-06T04:55:59;24.80;50.00
44723;DHT22;30451;48.638;10.624;2023-08-06T04:58:25;24.80;50.00
44723;DHT22;30451;48.638;10.624;2023-08-06T05:00:50;24.80;50.00
44723;DHT22;30451;48.638;10.624;2023-08-06T05:03:16;24.90;50.10
44723;DHT22;30451;48.638;10.624;2023-08-06T05:05:42;24.80;50.00
44723;DHT22;30451;48.638;10.624;2023-08-06T05:08:13;24.80;50.30
44723;DHT22;30451;48.638;10.624;2023-08-06T05:10:42;24.80;50.00
44723;DHT22;30451;48.638;10.624;2023-08-06T05:13:08;24.80;50.00
44723;DHT22;30451;48.638;10.624;2023-08-06T05:15:34;24.80;50.00
44723;DHT22;30451;48.638;10.624;2023-08-06T05:17:59;24.80;50.00
44723;DHT22;30451;48.638;10.624;2023-08-06T05:20:25;24.80;50.00
44723;DHT22;30451;48.638;10.624;2023-08-06T05:22:50;24.80;50.00
44723;DHT22;30451;48.638;10.624;2023-08-06T05:25:16;24.80;50.00
44723;DHT22;30451;48.638;10.624;2023-08-06T05:27:42;24.80;50.00
44723;DHT22;30451;48.638;10.624;2023-08-06T05:30:08;24.80;50.00
44723;DHT22;30451;48.638;10.624;2023-08-06T05:32:34;24.80;50.00
44723;DHT22;30451;48.638;10.624;2023-08-06T05:34:59;24.80;50.00
44723;DHT22;30451;48.638;10.624;2023-08-06T05:37:25;24.80;50.50
44723;DHT22;30451;48.638;10.624;2023-08-06T05:39:51;24.80;50.00
44723;DHT22;30451;48.638;10.624;2023-08-06T05:42:16;24.80;50.10
44723;DHT22;30451;48.638;10.624;2023-08-06T05:44:42;24.80;50.00
44723;DHT22;30451;48.638;10.624;2023-08-06T05:47:07;24.80;50.10
44723;DHT22;30451;48.638;10.624;2023-08-06T05:49:33;24.80;50.10
44723;DHT22;30451;48.638;10.624;2023-08-06T05:51:59;24.80;50.10
44723;DHT22;30451;48.638;10.624;2023-08-06T05:54:25;24.70;50.00
44723;DHT22;30451;48.638;10.624;2023-08-06T05:56:50;24.70;50.00
44723;DHT22;30451;48.638;10.624;2023-08-06T05:59:16;24.70;50.00
44723;DHT22;30451;48.638;10.624;2023-08-06T06:01:41;24.70;50.10
44723;DHT22;30451;48.638;10.624;2023-08-06T06:04:07;24.70;50.00
44723;DHT22;30451;48.638;10.624;2023-08-06T06:06:33;24.70;50.00
44723;DHT22;30451;48.638;10.624;2023-08-06T06:08:58;24.80;50.10
44723;DHT22;30451;48.638;10.624;2023-08-06T06:11:24;24.70;50.00
44723;DHT22;30451;48.638;10.624;2023-08-06T06:13:51;24.80;50.10
44723;DHT22;30451;48.638;10.624;2023-08-06T06:16:17;24.70;50.10
44723;DHT22;30451;48.638;10.624;2023-08-06T06:18:43;24.70;50.00
44723;DHT22;30451;48.638;10.624;2023-08-06T06:21:10;24.70;50.00
44723;DHT22;30451;48.638;10.624;2023-08-06T06:23:35;24.70;50.10
44723;DHT22;30451;48.638;10.624;2023-08-06T06:26:01;24.70;50.10
44723;DHT22;30451;48.638;10.624;2023-08-06T06:28:26;24.70;50.10
44723;DHT22;30451;48.638;10.624;2023-08-06T06:30:52;24.70;50.10
44723;DHT22;30451;48.638;10.624;2023-08-06T06:33:18;24.70;50.60
44723;DHT22;30451;48.638;10.624;2023-08-06T06:35:43;24.70;50.10
44723;DHT22;30451;48.638;10.624;2023-08-06T06:38:09;24.70;50.10
44723;DHT22;30451;48.638;10.624;2023-08-06T06:40:34;24.60;50.00
44723;DHT22;30451;48.638;10.624;2023-08-06T06:43:00;24.70;50.10
44723;DHT22;30451;48.638;10.624;2023-08-06T06:45:26;24.70;50.00
44723;DHT22;30451;48.638;10.624;2023-08-06T06:47:51;24.60;50.00
44723;DHT22;30451;48.638;10.624;2023-08-06T06:50:17;24.70;50.00
44723;DHT22;30451;48.638;10.624;2023-08-06T06:52:42;24.60;50.00
44723;DHT22;30451;48.638;10.624;2023-08-06T06:55:08;24.70;50.10
44723;DHT22;30451;48.638;10.624;2023-08-06T06:57:34;24.70;50.00
44723;DHT22;30451;48.638;10.624;2023-08-06T06:59:59;24.60;50.00
44723;DHT22;30451;48.638;10.624;2023-08-06T07:02:25;24.60;50.00
44723;DHT22;30451;48.638;10.624;2023-08-06T07:04:51;24.60;50.00
44723;DHT22;30451;48.638;10.624;2023-08-06T07:07:16;24.60;50.00
44723;DHT22;30451;48.638;10.624;2023-08-06T07:09:42;24.60;50.00
44723;DHT22;30451;48.638;10.624;2023-08-06T07:12:07;24.60;50.00
44723;DHT22;30451;48.638;10.624;2023-08-06T07:14:33;24.60;50.00
44723;DHT22;30451;48.638;10.624;2023-08-06T07:16:59;24.60;50.00
44723;DHT22;30451;48.638;10.624;2023-08-06T07:19:24;24.60;50.00
44723;DHT22;30451;48.638;10.624;2023-08-06T07:21:50;24.60;50.00
44723;DHT22;30451;48.638;10.624;2023-08-06T07:24:16;24.60;50.00
44723;DHT22;30451;48.638;10.624;2023-08-06T07:26:41;24.60;50.00
44723;DHT22;30451;48.638;10.624;2023-08-06T07:29:07;24.60;50.00
44723;DHT22;30451;48.638;10.624;2023-08-06T07:31:33;24.60;50.00
44723;DHT22;30451;48.638;10.624;2023-08-06T07:33:59;24.60;49.90
44723;DHT22;30451;48.638;10.624;2023-08-06T07:36:24;24.60;49.90
44723;DHT22;30451;48.638;10.624;2023-08-06T07:38:50;24.50;49.80
44723;DHT22;30451;48.638;10.624;2023-08-06T07:41:22;24.60;49.80
44723;DHT22;30451;48.638;10.624;2023-08-06T07:43:47;24.60;49.80
44723;DHT22;30451;48.638;10.624;2023-08-06T07:46:13;24.50;49.70
44723;DHT22;30451;48.638;10.624;2023-08-06T07:48:39;24.50;49.70
44723;DHT22;30451;48.638;10.624;2023-08-06T07:51:04;24.50;49.70
44723;DHT22;30451;48.638;10.624;2023-08-06T07:53:30;24.50;49.70
44723;DHT22;30451;48.638;10.624;2023-08-06T07:55:56;24.50;49.70
44723;DHT22;30451;48.638;10.624;2023-08-06T07:58:24;24.50;49.70
44723;DHT22;30451;48.638;10.624;2023-08-06T08:00:50;24.50;49.70
44723;DHT22;30451;48.638;10.624;2023-08-06T08:03:16;24.50;49.60
44723;DHT22;30451;48.638;10.624;2023-08-06T08:05:43;24.50;50.20
44723;DHT22;30451;48.638;10.624;2023-08-06T08:08:09;24.50;49.70
44723;DHT22;30451;48.638;10.624;2023-08-06T08:10:35;24.50;49.60
44723;DHT22;30451;48.638;10.624;2023-08-06T08:13:02;24.50;49.60
44723;DHT22;30451;48.638;10.624;2023-08-06T08:15:29;24.50;49.60
44723;DHT22;30451;48.638;10.624;2023-08-06T08:17:55;24.50;49.60
44723;DHT22;30451;48.638;10.624;2023-08-06T08:20:20;24.50;49.60
44723;DHT22;30451;48.638;10.624;2023-08-06T08:22:46;24.50;49.70
44723;DHT22;30451;48.638;10.624;2023-08-06T08:25:12;24.50;49.70
44723;DHT22;30451;48.638;10.624;2023-08-06T08:27:38;24.50;49.70
44723;DHT22;30451;48.638;10.624;2023-08-06T08:30:04;24.50;49.80
44723;DHT22;30451;48.638;10.624;2023-08-06T08:32:30;24.50;49.80
44723;DHT22;30451;48.638;10.624;2023-08-06T08:34:56;24.50;49.80
44723;DHT22;30451;48.638;10.624;2023-08-06T08:37:22;24.50;49.90
44723;DHT22;30451;48.638;10.624;2023-08-06T08:39:48;24.50;49.90
44723;DHT22;30451;48.638;10.624;2023-08-06T08:42:15;24.50;49.90
44723;DHT22;30451;48.638;10.624;2023-08-06T08:44:42;24.40;49.90
44723;DHT22;30451;48.638;10.624;2023-08-06T08:47:10;24.50;50.00
44723;DHT22;30451;48.638;10.624;2023-08-06T08:49:36;24.50;50.00
44723;DHT22;30451;48.638;10.624;2023-08-06T08:52:03;24.40;50.00
44723;DHT22;30451;48.638;10.624;2023-08-06T08:54:32;24.50;50.00
44723;DHT22;30451;48.638;10.624;2023-08-06T08:56:58;24.50;50.00
44723;DHT22;30451;48.638;10.624;2023-08-06T08:59:24;24.50;50.00
44723;DHT22;30451;48.638;10.624;2023-08-06T09:01:50;24.50;50.00
44723;DHT22;30451;48.638;10.624;2023-08-06T09:04:18;24.40;50.00
44723;DHT22;30451;48.638;10.624;2023-08-06T09:06:48;24.50;50.10
44723;DHT22;30451;48.638;10.624;2023-08-06T09:09:36;24.40;50.10
44723;DHT22;30451;48.638;10.624;2023-08-06T09:12:10;24.50;50.20
44723;DHT22;30451;48.638;10.624;2023-08-06T09:14:37;24.40;50.10
44723;DHT22;30451;48.638;10.624;2023-08-06T09:17:04;24.40;50.10
44723;DHT22;30451;48.638;10.624;2023-08-06T09:19:30;24.40;50.20
44723;DHT22;30451;48.638;10.624;2023-08-06T09:21:56;24.40;50.20
44723;DHT22;30451;48.638;10.624;2023-08-06T09:24:22;24.40;50.20
44723;DHT22;30451;48.638;10.624;2023-08-06T09:26:48;24.40;50.30
44723;DHT22;30451;48.638;10.624;2023-08-06T09:29:14;24.40;50.30
44723;DHT22;30451;48.638;10.624;2023-08-06T09:31:50;24.40;50.30
44723;DHT22;30451;48.638;10.624;2023-08-06T09:34:19;24.40;50.30
44723;DHT22;30451;48.638;10.624;2023-08-06T09:36:49;24.40;50.30
44723;DHT22;30451;48.638;10.624;2023-08-06T09:39:26;24.40;50.30
44723;DHT22;30451;48.638;10.624;2023-08-06T09:41:59;24.40;50.30
44723;DHT22;30451;48.638;10.624;2023-08-06T09:44:26;24.40;50.30
44723;DHT22;30451;48.638;10.624;2023-08-06T09:46:54;24.40;50.30
44723;DHT22;30451;48.638;10.624;2023-08-06T09:49:21;24.40;50.30
44723;DHT22;30451;48.638;10.624;2023-08-06T09:51:47;24.40;50.30
44723;DHT22;30451;48.638;10.624;2023-08-06T09:54:17;24.40;50.30
44723;DHT22;30451;48.638;10.624;2023-08-06T09:56:46;24.40;50.30
44723;DHT22;30451;48.638;10.624;2023-08-06T09:59:13;24.40;50.40
44723;DHT22;30451;48.638;10.624;2023-08-06T10:01:39;24.40;50.40
44723;DHT22;30451;48.638;10.624;2023-08-06T10:04:06;24.40;50.40
44723;DHT22;30451;48.638;10.624;2023-08-06T10:06:37;24.40;50.40
44723;DHT22;30451;48.638;10.624;2023-08-06T10:09:05;24.40;50.40
44723;DHT22;30451;48.638;10.624;2023-08-06T10:11:31;24.40;50.40
44723;DHT22;30451;48.638;10.624;2023-08-06T10:14:27;24.40;50.40
44723;DHT22;30451;48.638;10.624;2023-08-06T10:16:54;24.40;50.50
44723;DHT22;30451;48.638;10.624;2023-08-06T10:19:22;24.40;50.50
44723;DHT22;30451;48.638;10.624;2023-08-06T10:24:55;24.40;50.50
44723;DHT22;30451;48.638;10.624;2023-08-06T10:27:36;24.40;50.50
44723;DHT22;30451;48.638;10.624;2023-08-06T10:30:29;24.40;50.50
44723;DHT22;30451;48.638;10.624;2023-08-06T10:32:56;24.40;50.50
44723;DHT22;30451;48.638;10.624;2023-08-06T10:35:45;24.40;50.50
44723;DHT22;30451;48.638;10.624;2023-08-06T10:38:18;24.40;50.50
44723;DHT22;30451;48.638;10.624;2023-08-06T10:41:01;24.40;50.50
44723;DHT22;30451;48.638;10.624;2023-08-06T10:43:29;24.40;50.60
44723;DHT22;30451;48.638;10.624;2023-08-06T10:45:56;24.40;50.60
44723;DHT22;30451;48.638;10.624;2023-08-06T10:50:55;24.40;50.60
44723;DHT22;30451;48.638;10.624;2023-08-06T10:53:21;24.40;50.60
44723;DHT22;30451;48.638;10.624;2023-08-06T10:55:47;24.40;50.60
44723;DHT22;30451;48.638;10.624;2023-08-06T10:58:15;24.40;50.60
44723;DHT22;30451;48.638;10.624;2023-08-06T11:00:40;24.40;50.60
44723;DHT22;30451;48.638;10.624;2023-08-06T11:03:07;24.40;50.60
44723;DHT22;30451;48.638;10.624;2023-08-06T11:05:33;24.40;50.60
44723;DHT22;30451;48.638;10.624;2023-08-06T11:07:58;24.40;50.60
44723;DHT22;30451;48.638;10.624;2023-08-06T11:10:24;24.40;50.50
44723;DHT22;30451;48.638;10.624;2023-08-06T11:12:49;24.40;50.50
44723;DHT22;30451;48.638;10.624;2023-08-06T11:15:15;24.40;50.40
44723;DHT22;30451;48.638;10.624;2023-08-06T11:17:41;24.40;50.40
44723;DHT22;30451;48.638;10.624;2023-08-06T11:20:07;24.40;50.30
44723;DHT22;30451;48.638;10.624;2023-08-06T11:22:35;24.40;50.30
44723;DHT22;30451;48.638;10.624;2023-08-06T11:25:01;24.40;50.30
44723;DHT22;30451;48.638;10.624;2023-08-06T11:27:27;24.40;50.20
44723;DHT22;30451;48.638;10.624;2023-08-06T11:29:54;24.40;50.20
44723;DHT22;30451;48.638;10.624;2023-08-06T11:32:20;24.40;50.30
44723;DHT22;30451;48.638;10.624;2023-08-06T11:34:45;24.40;50.30
44723;DHT22;30451;48.638;10.624;2023-08-06T11:37:11;24.40;50.20
44723;DHT22;30451;48.638;10.624;2023-08-06T11:39:38;24.40;50.30
44723;DHT22;30451;48.638;10.624;2023-08-06T11:42:07;24.40;50.30
44723;DHT22;30451;48.638;10.624;2023-08-06T11:44:35;24.40;50.30
44723;DHT22;30451;48.638;10.624;2023-08-06T11:47:02;24.40;50.30
44723;DHT22;30451;48.638;10.624;2023-08-06T11:52:25;24.40;50.20
44723;DHT22;30451;48.638;10.624;2023-08-06T11:55:04;24.40;50.20
44723;DHT22;30451;48.638;10.624;2023-08-06T11:57:36;24.40;50.20
44723;DHT22;30451;48.638;10.624;2023-08-06T12:00:05;24.40;50.30
44723;DHT22;30451;48.638;10.624;2023-08-06T12:02:32;24.40;50.20
44723;DHT22;30451;48.638;10.624;2023-08-06T12:07:39;24.40;50.30
44723;DHT22;30451;48.638;10.624;2023-08-06T12:10:05;24.40;50.30
44723;DHT22;30451;48.638;10.624;2023-08-06T12:12:31;24.40;50.40
44723;DHT22;30451;48.638;10.624;2023-08-06T12:14:57;24.40;50.40
44723;DHT22;30451;48.638;10.624;2023-08-06T12:17:24;24.40;50.40
44723;DHT22;30451;48.638;10.624;2023-08-06T12:19:50;24.40;50.90
44723;DHT22;30451;48.638;10.624;2023-08-06T12:22:16;24.40;50.40
44723;DHT22;30451;48.638;10.624;2023-08-06T12:24:43;24.40;50.40
44723;DHT22;30451;48.638;10.624;2023-08-06T12:27:09;24.30;50.30
44723;DHT22;30451;48.638;10.624;2023-08-06T12:29:35;24.30;50.40
44723;DHT22;30451;48.638;10.624;2023-08-06T12:32:02;24.30;50.40
44723;DHT22;30451;48.638;10.624;2023-08-06T12:34:28;24.40;50.40
44723;DHT22;30451;48.638;10.624;2023-08-06T12:36:54;24.30;50.40
44723;DHT22;30451;48.638;10.624;2023-08-06T12:39:19;24.30;50.40
44723;DHT22;30451;48.638;10.624;2023-08-06T12:41:45;24.30;50.40
44723;DHT22;30451;48.638;10.624;2023-08-06T12:44:12;24.30;50.40
44723;DHT22;30451;48.638;10.624;2023-08-06T12:46:37;24.30;50.40
44723;DHT22;30451;48.638;10.624;2023-08-06T12:49:03;24.30;50.40
44723;DHT22;30451;48.638;10.624;2023-08-06T12:51:29;24.40;51.00
44723;DHT22;30451;48.638;10.624;2023-08-06T12:53:55;24.40;50.50
44723;DHT22;30451;48.638;10.624;2023-08-06T12:56:20;24.30;50.40
44723;DHT22;30451;48.638;10.624;2023-08-06T12:58:46;24.30;50.50
44723;DHT22;30451;48.638;10.624;2023-08-06T13:01:11;24.40;50.50
44723;DHT22;30451;48.638;10.624;2023-08-06T13:03:37;24.30;50.40
44723;DHT22;30451;48.638;10.624;2023-08-06T13:06:03;24.30;50.50
44723;DHT22;30451;48.638;10.624;2023-08-06T13:08:28;24.40;50.50
44723;DHT22;30451;48.638;10.624;2023-08-06T13:10:54;24.30;50.50
44723;DHT22;30451;48.638;10.624;2023-08-06T13:13:20;24.30;50.50
44723;DHT22;30451;48.638;10.624;2023-08-06T13:15:45;24.30;50.50
44723;DHT22;30451;48.638;10.624;2023-08-06T13:18:11;24.30;50.50
44723;DHT22;30451;48.638;10.624;2023-08-06T13:20:38;24.30;50.50
44723;DHT22;30451;48.638;10.624;2023-08-06T13:23:05;24.30;50.60
44723;DHT22;30451;48.638;10.624;2023-08-06T13:25:31;24.30;50.60
44723;DHT22;30451;48.638;10.624;2023-08-06T13:28:04;24.30;50.60
44723;DHT22;30451;48.638;10.624;2023-08-06T13:30:30;24.30;50.70
44723;DHT22;30451;48.638;10.624;2023-08-06T13:32:56;24.30;50.70
44723;DHT22;30451;48.638;10.624;2023-08-06T13:35:22;24.30;50.70
44723;DHT22;30451;48.638;10.624;2023-08-06T13:37:48;24.40;50.80
44723;DHT22;30451;48.638;10.624;2023-08-06T13:40:14;24.30;50.70
44723;DHT22;30451;48.638;10.624;2023-08-06T13:42:40;24.30;50.80
44723;DHT22;30451;48.638;10.624;2023-08-06T13:45:06;24.30;50.80
44723;DHT22;30451;48.638;10.624;2023-08-06T13:47:32;24.40;50.80
44723;DHT22;30451;48.638;10.624;2023-08-06T13:49:58;24.30;50.80
44723;DHT22;30451;48.638;10.624;2023-08-06T13:52:25;24.30;50.80
44723;DHT22;30451;48.638;10.624;2023-08-06T13:54:51;24.30;50.80
44723;DHT22;30451;48.638;10.624;2023-08-06T13:57:17;24.40;50.90
44723;DHT22;30451;48.638;10.624;2023-08-06T13:59:43;24.30;50.80
44723;DHT22;30451;48.638;10.624;2023-08-06T14:02:09;24.30;50.80
44723;DHT22;30451;48.638;10.624;2023-08-06T14:04:35;24.40;50.90
44723;DHT22;30451;48.638;10.624;2023-08-06T14:07:03;24.30;50.80
44723;DHT22;30451;48.638;10.624;2023-08-06T14:09:28;24.30;50.80
44723;DHT22;30451;48.638;10.624;2023-08-06T14:11:54;24.30;50.80
44723;DHT22;30451;48.638;10.624;2023-08-06T14:14:20;24.30;50.80
44723;DHT22;30451;48.638;10.624;2023-08-06T14:16:54;24.30;50.90
44723;DHT22;30451;48.638;10.624;2023-08-06T14:19:20;24.30;50.90
44723;DHT22;30451;48.638;10.624;2023-08-06T14:21:46;24.30;50.90
44723;DHT22;30451;48.638;10.624;2023-08-06T14:24:12;24.30;50.90
44723;DHT22;30451;48.638;10.624;2023-08-06T14:26:37;24.40;51.00
44723;DHT22;30451;48.638;10.624;2023-08-06T14:29:03;24.30;50.90
44723;DHT22;30451;48.638;10.624;2023-08-06T14:31:29;24.30;51.50
44723;DHT22;30451;48.638;10.624;2023-08-06T14:33:55;24.30;50.90
44723;DHT22;30451;48.638;10.624;2023-08-06T14:36:20;24.30;50.90
44723;DHT22;30451;48.638;10.624;2023-08-06T14:38:46;24.30;51.00
44723;DHT22;30451;48.638;10.624;2023-08-06T14:41:12;24.40;51.00
44723;DHT22;30451;48.638;10.624;2023-08-06T14:43:37;24.30;51.00
44723;DHT22;30451;48.638;10.624;2023-08-06T14:46:03;24.30;51.00
44723;DHT22;30451;48.638;10.624;2023-08-06T14:48:30;24.30;51.00
44723;DHT22;30451;48.638;10.624;2023-08-06T14:50:56;24.30;51.00
44723;DHT22;30451;48.638;10.624;2023-08-06T14:53:22;24.40;51.00
44723;DHT22;30451;48.638;10.624;2023-08-06T14:55:47;24.30;51.00
44723;DHT22;30451;48.638;10.624;2023-08-06T14:58:13;24.30;51.00
44723;DHT22;30451;48.638;10.624;2023-08-06T15:00:39;24.30;51.00
44723;DHT22;30451;48.638;10.624;2023-08-06T15:03:04;24.30;51.30
44723;DHT22;30451;48.638;10.624;2023-08-06T15:05:30;24.40;51.40
44723;DHT22;30451;48.638;10.624;2023-08-06T15:07:56;24.40;51.30
44723;DHT22;30451;48.638;10.624;2023-08-06T15:10:21;24.50;51.20
44723;DHT22;30451;48.638;10.624;2023-08-06T15:12:48;24.50;51.30
44723;DHT22;30451;48.638;10.624;2023-08-06T15:15:14;24.50;51.20
44723;DHT22;30451;48.638;10.624;2023-08-06T15:17:39;24.50;51.20
44723;DHT22;30451;48.638;10.624;2023-08-06T15:20:07;24.50;51.20
44723;DHT22;30451;48.638;10.624;2023-08-06T15:22:33;24.50;51.20
44723;DHT22;30451;48.638;10.624;2023-08-06T15:25:02;24.50;51.70
44723;DHT22;30451;48.638;10.624;2023-08-06T15:27:28;24.60;51.20
44723;DHT22;30451;48.638;10.624;2023-08-06T15:29:54;24.60;51.20